Time;durP1;ratioP1;P1;durP2;ratioP2;P2;SDS_P1;SDS_P2;PMS_P1;PMS_P2;Temp;Humidity;BMP_temperature;BMP_pressure;BME280_temperature;BME280_humidity;BME280_pressure;Samples;Min_cycle;Max_cycle;Signal;HPM_P1;HPM_P2
2022/07/12 00:00:32;;;;;;;2.40;2.40;;;23.10;70.00;;;;;;5069288;28;43946;-69
2022/07/12 00:03:00;;;;;;;2.70;2.50;;;23.00;69.60;;;;;;5069412;28;43989;-69
2022/07/12 00:05:28;;;;;;;2.90;2.90;;;23.00;70.80;;;;;;5070025;28;43976;-69
2022/07/12 00:07:56;;;;;;;2.80;2.80;;;23.00;70.60;;;;;;5070156;28;43874;-71
2022/07/12 00:10:24;;;;;;;2.73;2.73;;;23.10;70.30;;;;;;5069431;28;44001;-70
2022/07/12 00:12:52;;;;;;;2.40;2.40;;;23.20;70.00;;;;;;5069356;28;44101;-70
2022/07/12 00:15:22;;;;;;;2.57;2.57;;;23.40;69.70;;;;;;5069498;28;43944;-69
2022/07/12 00:17:50;;;;;;;2.67;2.67;;;23.50;69.10;;;;;;5063373;28;43855;-69
2022/07/12 00:20:18;;;;;;;2.70;2.70;;;23.70;68.70;;;;;;5062917;28;43954;-69
2022/07/12 00:22:47;;;;;;;2.57;2.57;;;23.80;68.20;;;;;;5062898;28;43920;-69
2022/07/12 00:25:15;;;;;;;2.63;2.63;;;23.90;67.80;;;;;;5062967;28;43405;-70
2022/07/12 00:27:43;;;;;;;2.37;2.37;;;24.00;67.30;;;;;;5063289;28;43893;-70
2022/07/12 00:30:12;;;;;;;2.73;2.73;;;24.20;66.90;;;;;;5062896;28;43976;-69
2022/07/12 00:32:41;;;;;;;2.40;2.40;;;24.30;66.40;;;;;;5062909;28;43951;-70
2022/07/12 00:35:09;;;;;;;2.53;2.50;;;24.40;65.90;;;;;;5068946;28;43882;-70
2022/07/12 00:37:37;;;;;;;2.80;2.70;;;24.40;65.80;;;;;;5069535;28;43835;-70
2022/07/12 00:40:06;;;;;;;2.80;2.80;;;24.30;66.30;;;;;;5068805;28;43944;-69
2022/07/12 00:42:34;;;;;;;2.47;2.47;;;24.10;66.50;;;;;;5069089;28;43900;-70
2022/07/12 00:45:02;;;;;;;2.60;2.60;;;23.90;66.60;;;;;;5069259;28;43818;-71
2022/07/12 00:47:36;;;;;;;2.60;2.60;;;23.70;67.00;;;;;;5069471;28;43963;-70
2022/07/12 00:50:07;;;;;;;2.87;2.87;;;23.50;67.70;;;;;;5068990;28;44684;-69
2022/07/12 00:52:36;;;;;;;2.53;2.53;;;23.40;68.20;;;;;;5068737;28;44000;-69
2022/07/12 00:55:05;;;;;;;2.30;2.30;;;23.30;68.50;;;;;;5068234;28;44007;-70
2022/07/12 00:57:33;;;;;;;2.77;2.77;;;23.20;68.80;;;;;;5068806;28;43459;-70
2022/07/12 01:00:01;;;;;;;2.60;2.60;;;23.10;69.00;;;;;;5068806;28;43953;-69
2022/07/12 01:02:29;;;;;;;2.70;2.70;;;23.00;69.20;;;;;;5067516;28;45025;-70
2022/07/12 01:04:57;;;;;;;2.70;2.70;;;23.00;69.50;;;;;;5068900;28;44021;-69
2022/07/12 01:07:27;;;;;;;2.90;2.87;;;22.90;69.60;;;;;;5068784;28;44142;-69
2022/07/12 01:09:55;;;;;;;2.40;2.40;;;22.90;69.70;;;;;;5068665;28;44019;-69
2022/07/12 01:12:23;;;;;;;2.60;2.60;;;22.90;69.80;;;;;;5068665;28;43425;-70
2022/07/12 01:14:51;;;;;;;2.50;2.50;;;22.90;69.90;;;;;;5068748;28;43348;-71
2022/07/12 01:17:20;;;;;;;2.67;2.67;;;22.90;70.00;;;;;;5068710;28;43977;-70
2022/07/12 01:19:48;;;;;;;2.97;2.97;;;22.90;70.60;;;;;;5068433;28;44009;-69
2022/07/12 01:22:17;;;;;;;2.90;2.90;;;22.80;71.10;;;;;;5066999;28;44610;-69
2022/07/12 01:24:46;;;;;;;2.67;2.67;;;22.90;71.20;;;;;;5068471;28;43469;-70
2022/07/12 01:27:14;;;;;;;2.97;2.97;;;23.00;70.70;;;;;;5068774;28;44003;-70
2022/07/12 01:29:42;;;;;;;2.80;2.80;;;23.20;70.40;;;;;;5068040;28;43778;-69
2022/07/12 01:32:25;;;;;;;2.57;2.57;;;23.30;70.50;;;;;;5068341;28;43943;-69
2022/07/12 01:34:53;;;;;;;2.80;2.80;;;23.40;69.30;;;;;;5068445;28;43907;-69
2022/07/12 01:37:22;;;;;;;2.70;2.70;;;23.60;68.80;;;;;;5068338;28;44007;-70
2022/07/12 01:39:53;;;;;;;2.70;2.60;;;23.70;68.30;;;;;;5067883;28;43822;-70
2022/07/12 01:42:21;;;;;;;2.70;2.70;;;23.90;67.90;;;;;;5066565;28;45167;-69
2022/07/12 01:44:49;;;;;;;2.97;2.97;;;24.00;67.40;;;;;;5066773;28;44068;-70
2022/07/12 01:47:18;;;;;;;2.50;2.50;;;24.10;67.00;;;;;;5068385;28;43958;-70
2022/07/12 01:49:45;;;;;;;2.73;2.73;;;24.30;66.60;;;;;;5067749;28;43747;-70
2022/07/12 01:52:14;;;;;;;2.83;2.83;;;24.30;66.10;;;;;;5067909;28;43939;-70
2022/07/12 01:54:42;;;;;;;2.70;2.70;;;24.30;66.40;;;;;;5068112;28;43886;-69
2022/07/12 01:57:12;;;;;;;2.53;2.53;;;24.10;66.50;;;;;;5068410;28;43971;-69
2022/07/12 01:59:39;;;;;;;2.90;2.90;;;23.90;66.70;;;;;;5066039;28;47255;-69
2022/07/12 02:02:08;;;;;;;2.90;2.90;;;23.70;67.00;;;;;;5067874;28;44006;-69
2022/07/12 02:04:36;;;;;;;2.77;2.77;;;23.50;67.70;;;;;;5067465;28;43508;-69
2022/07/12 02:07:05;;;;;;;2.83;2.83;;;23.40;68.20;;;;;;5066312;28;43960;-70
2022/07/12 02:09:32;;;;;;;2.70;2.70;;;23.30;68.60;;;;;;5067602;28;43830;-70
2022/07/12 02:12:00;;;;;;;2.70;2.70;;;23.20;68.90;;;;;;5067813;28;44010;-69
2022/07/12 02:14:31;;;;;;;3.00;3.00;;;23.10;69.20;;;;;;5066635;28;44046;-70
2022/07/12 02:16:59;;;;;;;2.90;2.90;;;23.00;69.40;;;;;;5068308;28;43920;-70
2022/07/12 02:19:27;;;;;;;2.80;2.80;;;23.00;69.60;;;;;;5067626;28;44004;-70
2022/07/12 02:21:55;;;;;;;2.70;2.70;;;22.90;69.60;;;;;;5067496;28;43970;-70
2022/07/12 02:24:23;;;;;;;2.57;2.57;;;22.90;69.80;;;;;;5067548;28;43284;-69
2022/07/12 02:26:51;;;;;;;3.00;3.00;;;22.90;70.60;;;;;;5066383;28;44064;-70
2022/07/12 02:29:19;;;;;;;2.70;2.70;;;22.80;70.00;;;;;;5067129;28;44061;-70
2022/07/12 02:31:48;;;;;;;2.73;2.73;;;22.80;70.00;;;;;;5067466;28;43727;-69
2022/07/12 02:34:16;;;;;;;2.93;2.93;;;22.80;70.10;;;;;;5066044;28;43907;-70
2022/07/12 02:36:44;;;;;;;3.07;3.07;;;22.80;70.10;;;;;;5067810;28;43954;-70
2022/07/12 02:39:12;;;;;;;3.03;3.03;;;22.80;70.40;;;;;;5066858;28;44038;-70
2022/07/12 02:41:40;;;;;;;3.10;3.00;;;22.80;71.20;;;;;;5067066;28;43978;-70
2022/07/12 02:44:08;;;;;;;3.00;3.00;;;22.80;71.20;;;;;;5067355;28;43951;-69
2022/07/12 02:46:36;;;;;;;3.00;2.93;;;22.90;70.90;;;;;;5067698;28;43348;-70
2022/07/12 02:49:05;;;;;;;3.07;3.07;;;23.10;70.40;;;;;;5066823;28;44879;-69
2022/07/12 02:51:33;;;;;;;2.70;2.70;;;23.20;69.80;;;;;;5066680;28;44099;-70
2022/07/12 02:54:01;;;;;;;2.73;2.73;;;23.40;69.50;;;;;;5067093;28;43979;-71
2022/07/12 02:56:29;;;;;;;2.80;2.80;;;23.50;69.00;;;;;;5067683;28;43794;-69
2022/07/12 02:58:57;;;;;;;3.10;3.00;;;23.60;68.50;;;;;;5067104;28;44713;-70
2022/07/12 03:01:25;;;;;;;3.03;3.03;;;23.80;68.10;;;;;;5065363;28;45303;-70
2022/07/12 03:03:53;;;;;;;2.93;2.93;;;23.90;67.40;;;;;;5066714;28;44023;-69
2022/07/12 03:06:23;;;;;;;2.90;2.90;;;24.00;66.90;;;;;;5067433;28;43849;-69
2022/07/12 03:08:51;;;;;;;2.90;2.90;;;24.10;66.70;;;;;;5060090;28;44744;-70
2022/07/12 03:11:19;;;;;;;3.20;3.10;;;24.00;66.90;;;;;;5060195;28;44504;-69
2022/07/12 03:13:47;;;;;;;3.00;2.90;;;23.90;67.10;;;;;;5060422;28;43967;-69
2022/07/12 03:16:14;;;;;;;3.10;3.10;;;23.70;67.20;;;;;;5060639;28;44029;-69
2022/07/12 03:18:43;;;;;;;3.00;3.00;;;23.50;67.70;;;;;;5059257;28;43861;-70
2022/07/12 03:21:12;;;;;;;2.80;2.80;;;23.40;68.30;;;;;;5059938;28;43869;-69
2022/07/12 03:23:43;;;;;;;2.60;2.60;;;23.20;68.70;;;;;;5060455;28;44085;-70
2022/07/12 03:26:11;;;;;;;2.80;2.80;;;23.20;69.00;;;;;;5067157;28;43955;-69
2022/07/12 03:28:39;;;;;;;3.07;3.07;;;23.00;69.20;;;;;;5066431;28;43987;-69
2022/07/12 03:31:07;;;;;;;3.00;3.00;;;23.00;69.50;;;;;;5066463;28;43956;-69
2022/07/12 03:33:36;;;;;;;2.93;2.93;;;22.90;69.60;;;;;;5066529;28;43323;-70
2022/07/12 03:36:06;;;;;;;2.97;2.97;;;22.90;69.80;;;;;;5065475;28;43959;-69
2022/07/12 03:38:34;;;;;;;2.80;2.80;;;22.90;70.00;;;;;;5066415;28;44694;-70
2022/07/12 03:41:03;;;;;;;3.13;3.13;;;22.80;70.00;;;;;;5066160;28;44065;-69
2022/07/12 03:43:31;;;;;;;3.20;3.20;;;22.80;70.20;;;;;;5066738;28;43860;-70
2022/07/12 03:45:59;;;;;;;2.77;2.77;;;22.80;71.20;;;;;;5067433;28;43954;-70
2022/07/12 03:48:27;;;;;;;2.90;2.90;;;22.80;71.30;;;;;;5066350;28;43959;-69
2022/07/12 03:50:56;;;;;;;2.80;2.80;;;22.90;70.90;;;;;;5066433;28;43889;-70
2022/07/12 03:53:24;;;;;;;3.03;3.03;;;23.00;70.50;;;;;;5066648;28;43892;-69
2022/07/12 03:55:52;;;;;;;3.20;3.20;;;23.10;70.00;;;;;;5066778;28;43970;-70
2022/07/12 03:58:21;;;;;;;3.20;3.13;;;23.30;69.60;;;;;;5066491;28;43681;-70
2022/07/12 04:00:49;;;;;;;3.30;3.10;;;23.40;69.10;;;;;;5066434;28;43959;-69
2022/07/12 04:03:17;;;;;;;3.10;3.10;;;23.50;68.50;;;;;;5065930;28;44141;-70
2022/07/12 04:05:45;;;;;;;2.90;2.90;;;23.70;68.00;;;;;;5066963;28;43956;-70
2022/07/12 04:08:13;;;;;;;2.93;2.93;;;23.80;67.90;;;;;;5066356;28;43975;-69
2022/07/12 04:10:41;;;;;;;3.07;3.07;;;24.00;67.10;;;;;;5065946;28;43939;-70
2022/07/12 04:13:09;;;;;;;2.90;2.90;;;24.10;66.60;;;;;;5064932;28;43438;-69
2022/07/12 04:15:39;;;;;;;3.20;3.20;;;24.20;66.20;;;;;;5066379;28;43966;-70
2022/07/12 04:18:07;;;;;;;3.07;3.07;;;24.10;66.10;;;;;;5066303;28;44323;-70
2022/07/12 04:20:35;;;;;;;3.27;3.27;;;24.00;66.50;;;;;;5066035;28;44388;-70
2022/07/12 04:23:03;;;;;;;3.50;3.40;;;23.80;66.50;;;;;;5066137;28;43927;-71
2022/07/12 04:25:31;;;;;;;3.10;3.10;;;23.60;67.00;;;;;;5066740;28;43932;-70
2022/07/12 04:27:59;;;;;;;2.87;2.87;;;23.50;67.60;;;;;;5066170;28;43936;-69
2022/07/12 04:30:29;;;;;;;2.90;2.90;;;23.30;68.20;;;;;;5067553;28;43956;-70
2022/07/12 04:32:58;;;;;;;3.13;3.13;;;23.20;68.50;;;;;;5069631;28;43960;-70
2022/07/12 04:35:26;;;;;;;3.00;3.00;;;23.10;68.90;;;;;;5069824;28;43940;-70
2022/07/12 04:37:54;;;;;;;2.90;2.90;;;23.00;69.10;;;;;;5069344;28;43959;-69
2022/07/12 04:40:22;;;;;;;3.10;3.10;;;23.00;69.30;;;;;;5068911;28;44441;-70
2022/07/12 04:42:50;;;;;;;3.10;3.10;;;22.90;69.60;;;;;;5069364;28;43971;-69
2022/07/12 04:45:19;;;;;;;2.93;2.93;;;22.90;69.70;;;;;;5069668;28;43510;-70
2022/07/12 04:47:47;;;;;;;2.90;2.90;;;22.80;69.80;;;;;;5069558;28;44236;-69
2022/07/12 04:50:16;;;;;;;3.13;3.03;;;22.80;70.60;;;;;;5068988;28;44113;-69
2022/07/12 04:52:44;;;;;;;2.90;2.90;;;22.80;70.00;;;;;;5069036;28;43959;-69
2022/07/12 04:55:12;;;;;;;3.00;3.00;;;22.70;70.00;;;;;;5069569;28;43948;-69
2022/07/12 04:57:40;;;;;;;3.00;3.00;;;22.80;70.10;;;;;;5068994;28;44851;-69
2022/07/12 05:00:09;;;;;;;3.10;3.10;;;22.70;70.10;;;;;;5068689;28;44099;-69
2022/07/12 05:02:37;;;;;;;3.20;3.10;;;22.70;71.00;;;;;;5068882;28;44025;-70
2022/07/12 05:05:05;;;;;;;3.07;3.07;;;22.70;71.10;;;;;;5068003;28;44082;-70
2022/07/12 05:07:35;;;;;;;3.30;3.30;;;22.80;70.90;;;;;;5068710;28;43995;-70
2022/07/12 05:10:03;;;;;;;3.10;3.10;;;22.90;70.70;;;;;;5068641;28;43964;-69
2022/07/12 05:12:31;;;;;;;3.17;3.17;;;23.00;70.10;;;;;;5069290;28;43437;-70
2022/07/12 05:14:59;;;;;;;3.10;3.10;;;23.20;69.60;;;;;;5069268;28;43819;-70
2022/07/12 05:17:27;;;;;;;3.00;3.00;;;23.40;69.00;;;;;;5067424;28;47682;-69
2022/07/12 05:19:55;;;;;;;2.77;2.77;;;23.50;68.50;;;;;;5068513;28;43891;-70
2022/07/12 05:22:23;;;;;;;3.17;3.17;;;23.60;68.00;;;;;;5068698;28;43939;-70
2022/07/12 05:24:52;;;;;;;3.20;3.10;;;23.80;67.60;;;;;;5069187;28;43925;-70
2022/07/12 05:27:20;;;;;;;3.00;3.00;;;23.90;67.10;;;;;;5068611;28;45108;-70
2022/07/12 05:29:48;;;;;;;3.17;3.17;;;24.00;66.80;;;;;;5068376;28;43901;-70
2022/07/12 05:32:16;;;;;;;3.03;3.03;;;24.10;66.30;;;;;;5068501;28;43370;-70
2022/07/12 05:34:44;;;;;;;2.90;2.90;;;24.00;66.40;;;;;;5068890;28;43960;-70
2022/07/12 05:37:12;;;;;;;2.80;2.80;;;23.90;66.70;;;;;;5068271;28;44005;-69
2022/07/12 05:39:40;;;;;;;2.90;2.90;;;23.70;67.00;;;;;;5068048;28;43967;-70
2022/07/12 05:42:13;;;;;;;3.17;3.07;;;23.50;67.50;;;;;;5067909;28;43938;-70
2022/07/12 05:44:41;;;;;;;3.10;3.00;;;23.40;68.10;;;;;;5068580;28;43905;-70
2022/07/12 05:47:09;;;;;;;3.00;3.00;;;23.20;68.30;;;;;;5068208;28;44092;-69
2022/07/12 05:49:37;;;;;;;2.83;2.83;;;23.20;68.80;;;;;;5068098;28;43927;-70
2022/07/12 05:54:51;;;;;;;2.87;2.87;;;23.00;69.40;;;;;;5068612;28;43849;-70
2022/07/12 05:57:20;;;;;;;3.10;3.00;;;22.90;69.50;;;;;;5068074;28;43968;-70
2022/07/12 05:59:48;;;;;;;3.10;3.00;;;22.90;69.70;;;;;;5066468;28;45623;-69
2022/07/12 06:02:16;;;;;;;3.00;3.00;;;22.80;69.70;;;;;;5068015;28;43766;-70
2022/07/12 06:04:44;;;;;;;3.00;3.00;;;22.80;69.90;;;;;;5066450;28;43545;-70
2022/07/12 06:07:18;;;;;;;2.90;2.90;;;22.80;70.00;;;;;;5067847;28;43928;-70
2022/07/12 06:09:46;;;;;;;2.93;2.93;;;22.80;70.00;;;;;;5067587;28;44101;-69
2022/07/12 06:12:14;;;;;;;3.00;3.00;;;22.80;70.10;;;;;;5067779;28;43277;-70
2022/07/12 06:14:43;;;;;;;2.87;2.83;;;22.70;71.00;;;;;;5068238;28;43427;-70
2022/07/12 06:17:11;;;;;;;3.07;3.07;;;22.70;71.00;;;;;;5067591;28;43809;-70
2022/07/12 06:19:39;;;;;;;2.70;2.70;;;22.80;70.90;;;;;;5067585;28;43896;-69
2022/07/12 06:22:07;;;;;;;2.80;2.80;;;22.90;70.50;;;;;;5067803;28;43327;-69
2022/07/12 06:24:35;;;;;;;2.80;2.80;;;23.00;70.00;;;;;;5068442;28;43972;-69
2022/07/12 06:27:04;;;;;;;2.70;2.70;;;23.20;69.60;;;;;;5067726;28;43862;-70
2022/07/12 06:29:32;;;;;;;2.70;2.70;;;23.30;69.10;;;;;;5067501;28;43928;-70
2022/07/12 06:32:01;;;;;;;3.13;3.13;;;23.40;68.60;;;;;;5067451;28;43984;-71
2022/07/12 06:34:29;;;;;;;2.80;2.80;;;23.60;68.10;;;;;;5066945;28;44039;-70
2022/07/12 06:36:57;;;;;;;3.03;3.03;;;23.70;67.60;;;;;;5067626;28;43959;-71
2022/07/12 06:39:25;;;;;;;2.60;2.60;;;23.80;67.10;;;;;;5067276;28;44010;-71
2022/07/12 06:41:53;;;;;;;2.57;2.57;;;24.00;66.80;;;;;;5067391;28;43428;-70
2022/07/12 06:44:21;;;;;;;2.57;2.57;;;24.00;66.60;;;;;;5067879;28;43951;-69
2022/07/12 06:46:49;;;;;;;2.60;2.60;;;24.10;66.30;;;;;;5067268;28;44602;-70
2022/07/12 06:49:19;;;;;;;2.67;2.57;;;24.00;66.70;;;;;;5067049;28;43919;-69
2022/07/12 06:51:47;;;;;;;2.90;2.80;;;23.80;67.00;;;;;;5067243;28;43818;-69
2022/07/12 06:54:15;;;;;;;2.70;2.70;;;23.60;67.40;;;;;;5064967;28;44019;-70
2022/07/12 06:56:43;;;;;;;2.57;2.57;;;23.50;67.80;;;;;;5067201;28;44039;-69
2022/07/12 06:59:11;;;;;;;2.47;2.40;;;23.30;68.10;;;;;;5067173;28;43454;-70
2022/07/12 07:01:43;;;;;;;2.57;2.57;;;23.20;68.50;;;;;;5067178;28;44034;-69
2022/07/12 07:04:11;;;;;;;3.00;3.00;;;23.10;68.80;;;;;;5066994;28;43414;-69
2022/07/12 07:06:40;;;;;;;3.10;3.00;;;23.00;68.60;;;;;;5066992;28;43948;-70
2022/07/12 07:09:08;;;;;;;2.60;2.50;;;22.90;68.70;;;;;;5066966;28;44032;-70
2022/07/12 07:11:36;;;;;;;4.30;2.60;;;22.90;69.00;;;;;;5067260;28;43850;-69
2022/07/12 07:14:04;;;;;;;2.73;2.73;;;22.90;69.30;;;;;;5065849;28;43989;-69
2022/07/12 07:16:32;;;;;;;2.63;2.63;;;22.80;69.40;;;;;;5067020;28;44941;-70
2022/07/12 07:19:02;;;;;;;2.87;2.73;;;22.80;69.60;;;;;;5067131;28;44003;-69
2022/07/12 07:21:30;;;;;;;2.80;2.70;;;22.80;69.70;;;;;;5067245;28;43775;-69
2022/07/12 07:23:59;;;;;;;2.80;2.70;;;22.80;69.90;;;;;;5067641;28;43865;-70
2022/07/12 07:26:27;;;;;;;2.90;2.80;;;22.70;69.80;;;;;;5067044;28;43723;-69
2022/07/12 07:31:41;;;;;;;3.10;2.93;;;22.70;70.10;;;;;;5066944;28;43427;-69
2022/07/12 07:34:09;;;;;;;3.20;3.03;;;22.70;71.00;;;;;;5067292;28;43407;-69
2022/07/12 07:36:37;;;;;;;2.73;2.63;;;22.70;71.00;;;;;;5066539;28;43983;-69
2022/07/12 07:39:06;;;;;;;2.70;2.50;;;22.80;70.90;;;;;;5066611;28;43896;-70
2022/07/12 07:41:34;;;;;;;3.13;2.77;;;22.90;70.40;;;;;;5066667;28;43980;-70
2022/07/12 07:44:02;;;;;;;2.83;2.73;;;23.10;70.10;;;;;;5066790;28;44103;-69
2022/07/12 07:46:30;;;;;;;2.40;2.40;;;23.20;69.50;;;;;;5066656;28;44953;-69
2022/07/12 07:48:58;;;;;;;2.57;2.47;;;23.40;69.00;;;;;;5066614;28;43411;-69
2022/07/12 07:51:26;;;;;;;4.93;2.73;;;23.50;68.30;;;;;;5065139;28;44259;-70
2022/07/12 07:53:54;;;;;;;2.50;2.40;;;23.60;68.00;;;;;;5067059;28;43968;-69
2022/07/12 07:56:24;;;;;;;2.50;2.40;;;23.80;67.80;;;;;;5066198;28;43690;-70
2022/07/12 07:58:53;;;;;;;2.70;2.60;;;23.80;67.40;;;;;;5066466;28;43824;-70
2022/07/12 08:01:42;;;;;;;2.60;2.40;;;23.90;67.30;;;;;;5066636;28;43912;-69
2022/07/12 08:04:10;;;;;;;2.47;2.47;;;23.90;67.20;;;;;;5067117;28;43791;-69
2022/07/12 08:06:38;;;;;;;2.40;2.40;;;23.70;67.50;;;;;;5069660;28;44643;-69
2022/07/12 08:09:06;;;;;;;2.40;2.40;;;23.60;67.90;;;;;;5069827;28;44035;-69
2022/07/12 08:11:41;;;;;;;2.60;2.50;;;23.40;68.10;;;;;;5069715;28;44030;-69
2022/07/12 08:14:09;;;;;;;2.50;2.40;;;23.30;68.50;;;;;;5070200;28;43911;-70
2022/07/12 08:16:37;;;;;;;2.37;2.27;;;23.20;68.80;;;;;;5068387;28;45287;-70
2022/07/12 08:19:05;;;;;;;2.37;2.37;;;23.10;69.10;;;;;;5069658;28;43774;-71
2022/07/12 08:21:34;;;;;;;2.50;2.40;;;23.00;69.50;;;;;;5069629;28;43947;-69
2022/07/12 08:24:05;;;;;;;2.40;2.30;;;22.90;69.60;;;;;;5070205;28;43945;-69
2022/07/12 08:26:33;;;;;;;2.50;2.40;;;22.90;69.80;;;;;;5069580;28;44053;-69
2022/07/12 08:29:02;;;;;;;2.30;2.30;;;22.80;70.00;;;;;;5069601;28;44031;-70
2022/07/12 08:31:30;;;;;;;2.30;2.20;;;22.80;70.10;;;;;;5069882;28;44027;-70
2022/07/12 08:33:58;;;;;;;2.50;2.40;;;22.80;70.20;;;;;;5069970;28;44484;-70
2022/07/12 08:36:27;;;;;;;2.27;2.27;;;22.80;70.40;;;;;;5069443;28;43885;-69
2022/07/12 08:39:00;;;;;;;2.27;2.27;;;22.80;70.40;;;;;;5069421;28;44171;-70
2022/07/12 08:41:29;;;;;;;2.13;2.13;;;22.70;70.30;;;;;;5069323;28;43766;-69
2022/07/12 08:43:57;;;;;;;2.40;2.40;;;22.70;70.40;;;;;;5069696;28;43932;-70
2022/07/12 08:46:26;;;;;;;2.47;2.43;;;22.70;70.60;;;;;;5069050;28;44969;-70
2022/07/12 08:48:54;;;;;;;2.00;2.00;;;22.70;71.30;;;;;;5069222;28;44099;-70
2022/07/12 08:51:22;;;;;;;2.27;2.27;;;22.70;71.30;;;;;;5067667;28;43937;-69
2022/07/12 08:54:05;;;;;;;2.20;2.20;;;22.80;71.10;;;;;;5069560;28;43955;-70
2022/07/12 08:56:34;;;;;;;2.17;2.17;;;23.00;70.80;;;;;;5067775;28;45787;-69
2022/07/12 08:59:15;;;;;;;2.40;2.30;;;23.10;70.20;;;;;;5062885;28;43797;-69
2022/07/12 09:01:47;;;;;;;2.80;2.70;;;23.30;69.80;;;;;;5064589;28;43877;-69
2022/07/12 09:04:15;;;;;;;2.67;2.47;;;23.40;70.00;;;;;;5069172;28;43856;-70
2022/07/12 09:06:44;;;;;;;2.80;2.30;;;23.50;68.80;;;;;;5068834;28;44007;-70
2022/07/12 09:09:12;;;;;;;2.97;2.70;;;23.60;68.50;;;;;;5068949;28;44030;-69
2022/07/12 09:11:40;;;;;;;2.40;2.37;;;23.70;68.20;;;;;;5069004;28;44013;-70
2022/07/12 09:14:08;;;;;;;2.60;2.50;;;23.80;67.90;;;;;;5069210;28;43927;-69
2022/07/12 09:16:36;;;;;;;2.70;2.60;;;23.90;67.80;;;;;;5067334;28;43976;-69
2022/07/12 09:19:16;;;;;;;2.60;2.50;;;23.90;67.50;;;;;;5067237;28;45147;-69
2022/07/12 09:21:49;;;;;;;2.27;2.23;;;23.80;67.90;;;;;;5068810;28;44074;-69
2022/07/12 09:24:17;;;;;;;2.33;2.33;;;23.70;68.30;;;;;;5069274;28;43380;-69
2022/07/12 09:26:45;;;;;;;2.40;2.27;;;23.50;69.20;;;;;;5068390;28;44112;-70
2022/07/12 09:29:14;;;;;;;2.17;2.17;;;23.40;68.70;;;;;;5068580;28;43308;-69
2022/07/12 09:36:06;;;;;;;2.40;2.30;;;23.30;69.10;;;;;;5068857;28;43532;-70
2022/07/12 09:37:17;;;;;;;2.13;2.13;;;23.00;69.60;;;;;;5068386;28;43876;-69
2022/07/12 09:39:45;;;;;;;2.50;2.40;;;23.00;69.90;;;;;;5068103;28;43872;-70
2022/07/12 09:42:13;;;;;;;2.70;2.60;;;22.90;70.00;;;;;;5068624;28;44038;-70
2022/07/12 09:44:42;;;;;;;2.30;2.20;;;22.90;70.20;;;;;;5068837;28;44052;-69
2022/07/12 09:47:13;;;;;;;2.30;2.30;;;22.90;70.30;;;;;;5068041;28;43910;-69
2022/07/12 09:49:42;;;;;;;2.27;2.20;;;22.80;70.40;;;;;;5068321;28;43492;-70
2022/07/12 09:52:12;;;;;;;2.20;2.20;;;22.80;70.40;;;;;;5068300;28;44072;-70
2022/07/12 09:54:41;;;;;;;2.33;2.30;;;22.70;70.40;;;;;;5068583;28;43891;-69
2022/07/12 09:57:18;;;;;;;2.70;2.60;;;22.80;70.60;;;;;;5068004;28;43951;-69
2022/07/12 09:59:46;;;;;;;2.37;2.27;;;22.70;71.40;;;;;;5068112;28;43375;-70
2022/07/12 10:02:15;;;;;;;2.70;2.60;;;22.70;71.40;;;;;;5068224;28;43602;-70
2022/07/12 10:04:45;;;;;;;2.33;2.33;;;22.80;71.40;;;;;;5068045;28;43588;-70
2022/07/12 10:07:13;;;;;;;2.60;2.50;;;22.90;71.90;;;;;;5067832;28;44208;-69
2022/07/12 10:09:41;;;;;;;2.60;2.50;;;23.00;68.80;;;;;;5061220;28;43958;-70
2022/07/12 10:12:10;;;;;;;4.33;2.40;;;23.10;68.40;;;;;;5061426;28;43967;-69
2022/07/12 10:14:39;;;;;;;2.30;2.20;;;23.20;68.60;;;;;;5061978;28;43943;-70
2022/07/12 10:17:09;;;;;;;2.53;2.43;;;23.40;68.70;;;;;;5061237;28;43754;-70
2022/07/12 10:19:37;;;;;;;2.97;2.23;;;23.50;68.50;;;;;;5061487;28;44053;-69
2022/07/12 10:22:07;;;;;;;2.30;2.20;;;23.60;69.00;;;;;;5067820;28;43930;-69
2022/07/12 10:24:54;;;;;;;2.80;2.60;;;23.70;68.00;;;;;;5068148;28;43774;-69
2022/07/12 10:27:32;;;;;;;2.70;2.60;;;23.70;67.70;;;;;;5067420;28;43951;-70
2022/07/12 10:30:14;;;;;;;2.50;2.40;;;23.90;67.50;;;;;;5067689;28;44040;-70
2022/07/12 10:32:43;;;;;;;2.47;2.37;;;23.80;67.50;;;;;;5067735;28;43397;-69
2022/07/12 10:35:17;;;;;;;2.53;2.33;;;23.70;68.00;;;;;;5066266;28;43980;-70
2022/07/12 10:38:21;;;;;;;2.40;2.30;;;23.50;69.00;;;;;;5067288;28;43962;-70
2022/07/12 10:40:50;;;;;;;2.40;2.30;;;23.40;68.50;;;;;;5067486;28;44007;-69
2022/07/12 10:44:04;;;;;;;2.40;2.30;;;23.20;68.70;;;;;;5067270;28;44007;-70
2022/07/12 10:46:25;;;;;;;2.10;2.10;;;23.10;69.00;;;;;;5067610;28;43994;-69
2022/07/12 10:49:29;;;;;;;2.30;2.30;;;23.00;69.40;;;;;;5066895;28;43932;-70
2022/07/12 10:52:18;;;;;;;2.30;2.20;;;22.90;69.70;;;;;;5067410;28;43759;-70
2022/07/12 10:55:18;;;;;;;2.03;2.00;;;22.90;70.00;;;;;;5063160;28;43955;-69
2022/07/12 10:57:50;;;;;;;2.37;2.27;;;22.80;70.20;;;;;;5067653;28;43913;-70
2022/07/12 11:00:19;;;;;;;2.13;2.10;;;22.80;70.30;;;;;;5067177;28;44081;-69
2022/07/12 11:02:47;;;;;;;2.33;2.23;;;22.80;70.40;;;;;;5067189;28;43955;-70
2022/07/12 11:05:15;;;;;;;2.27;2.17;;;22.70;70.40;;;;;;5066805;28;44030;-70
2022/07/12 11:07:43;;;;;;;1.97;1.97;;;22.70;70.40;;;;;;5067332;28;43522;-69
2022/07/12 11:10:14;;;;;;;2.50;2.30;;;22.70;70.50;;;;;;5067168;28;43931;-70
2022/07/12 11:12:42;;;;;;;2.17;2.13;;;22.70;70.60;;;;;;5065512;28;43498;-70
2022/07/12 11:15:12;;;;;;;2.40;2.17;;;22.70;70.70;;;;;;5066970;28;43977;-69
2022/07/12 11:17:40;;;;;;;1.93;1.90;;;22.70;70.90;;;;;;5067188;28;43453;-69
2022/07/12 11:20:10;;;;;;;2.13;2.10;;;22.70;71.60;;;;;;5066915;28;43927;-70
2022/07/12 11:22:39;;;;;;;1.90;1.90;;;22.70;71.60;;;;;;5066746;28;43991;-69
2022/07/12 11:25:08;;;;;;;2.33;2.10;;;22.80;71.50;;;;;;5066645;28;44034;-69
2022/07/12 11:27:40;;;;;;;2.07;2.03;;;22.90;71.10;;;;;;5067179;28;43450;-70
2022/07/12 11:30:09;;;;;;;1.93;1.93;;;23.00;70.50;;;;;;5066494;28;44013;-70
2022/07/12 11:32:39;;;;;;;2.23;2.23;;;23.20;70.10;;;;;;5066832;28;43983;-69
2022/07/12 11:35:22;;;;;;;2.00;2.00;;;23.30;69.70;;;;;;5066818;28;44018;-70
2022/07/12 11:37:51;;;;;;;2.00;2.00;;;23.40;69.30;;;;;;5064947;28;43602;-69
2022/07/12 11:40:26;;;;;;;2.00;2.00;;;23.50;69.00;;;;;;5067708;28;44845;-70
2022/07/12 11:42:58;;;;;;;1.80;1.80;;;23.60;68.60;;;;;;5070274;28;44002;-69
2022/07/12 11:45:27;;;;;;;1.80;1.80;;;23.70;68.40;;;;;;5070384;28;43955;-69
2022/07/12 11:47:56;;;;;;;1.87;1.87;;;23.70;68.30;;;;;;5070713;28;43769;-71
2022/07/12 11:50:24;;;;;;;2.17;2.17;;;23.60;68.50;;;;;;5070185;28;45158;-70
2022/07/12 11:52:56;;;;;;;1.83;1.83;;;23.50;68.70;;;;;;5070035;28;44117;-70
2022/07/12 11:55:24;;;;;;;1.80;1.80;;;23.40;68.90;;;;;;5069928;28;43465;-69
2022/07/12 11:57:53;;;;;;;2.13;2.10;;;23.20;69.00;;;;;;5070363;28;44091;-69
2022/07/12 12:00:24;;;;;;;1.90;1.90;;;23.10;69.30;;;;;;5069568;28;43798;-69
2022/07/12 12:02:52;;;;;;;1.93;1.93;;;23.00;69.60;;;;;;5069976;28;43782;-70
2022/07/12 12:05:21;;;;;;;1.57;1.57;;;22.90;70.50;;;;;;5069544;28;43771;-69
2022/07/12 12:07:49;;;;;;;1.70;1.70;;;22.90;70.10;;;;;;5070274;28;43954;-69
2022/07/12 12:10:22;;;;;;;2.30;2.10;;;22.80;70.20;;;;;;5069760;28;43900;-69
2022/07/12 12:12:52;;;;;;;2.03;2.03;;;22.80;70.30;;;;;;5069892;28;43402;-70
2022/07/12 12:15:21;;;;;;;2.10;2.00;;;22.80;70.40;;;;;;5069894;28;44105;-69
2022/07/12 12:17:54;;;;;;;2.00;2.00;;;22.70;70.50;;;;;;5068567;28;44216;-70
2022/07/12 12:20:23;;;;;;;2.03;2.03;;;22.70;70.60;;;;;;5069626;28;44057;-70
2022/07/12 12:22:53;;;;;;;2.30;2.30;;;22.70;70.60;;;;;;5063134;28;43912;-70
2022/07/12 12:25:21;;;;;;;2.30;2.20;;;22.70;70.60;;;;;;5069513;28;43959;-70
2022/07/12 12:27:51;;;;;;;2.40;2.30;;;22.60;71.20;;;;;;5063631;28;43785;-71
2022/07/12 12:30:50;;;;;;;2.40;2.30;;;22.60;71.50;;;;;;5065843;28;44914;-70
2022/07/12 12:33:35;;;;;;;2.33;2.23;;;22.70;71.60;;;;;;5069408;28;43954;-70
2022/07/12 12:36:13;;;;;;;2.67;2.37;;;22.80;71.30;;;;;;5063294;28;43971;-70
2022/07/12 12:38:42;;;;;;;1.93;1.93;;;22.90;70.90;;;;;;5064766;28;43916;-71
2022/07/12 12:41:10;;;;;;;2.30;2.20;;;23.10;70.50;;;;;;5069038;28;43867;-70
2022/07/12 12:43:38;;;;;;;2.20;2.10;;;23.20;70.00;;;;;;5069144;28;43947;-69
2022/07/12 12:46:06;;;;;;;2.33;2.23;;;23.30;69.60;;;;;;5069432;28;43981;-70
2022/07/12 12:48:35;;;;;;;2.17;2.07;;;23.40;69.20;;;;;;5069632;28;44015;-70
2022/07/12 12:51:05;;;;;;;2.40;2.20;;;23.50;68.80;;;;;;5068096;28;43864;-70
2022/07/12 12:53:33;;;;;;;2.00;2.00;;;23.60;68.50;;;;;;5067259;28;46217;-68
2022/07/12 12:56:01;;;;;;;2.40;2.30;;;23.70;68.20;;;;;;5069408;28;43965;-70
2022/07/12 12:58:29;;;;;;;2.40;2.30;;;23.80;68.00;;;;;;5069660;28;43951;-70
2022/07/12 13:00:57;;;;;;;2.33;2.23;;;23.80;68.00;;;;;;5067459;28;45672;-69
2022/07/12 13:03:25;;;;;;;1.97;1.97;;;23.70;68.30;;;;;;5068508;28;43984;-70
2022/07/12 13:05:55;;;;;;;2.27;2.17;;;23.50;68.60;;;;;;5067806;28;44065;-70
2022/07/12 13:08:23;;;;;;;1.93;1.93;;;23.40;68.70;;;;;;5068052;28;43478;-69